Time;durP1;ratioP1;P1;durP2;ratioP2;P2;SDS_P1;SDS_P2;PMS_P1;PMS_P2;Temp;Humidity;BMP_temperature;BMP_pressure;BME280_temperature;BME280_humidity;BME280_pressure;Samples;Min_cycle;Max_cycle;Signal;HPM_P1;HPM_P2
2021/06/03 01:11:22;;;;;;;5.00;4.80;;;22.20;55.40;;;;;;3119711;23;20467;-91
2021/06/03 01:14:06;;;;;;;5.53;5.23;;;21.50;55.30;;;;;;5021805;28;20438;-93
2021/06/03 01:19:20;;;;;;;5.83;5.43;;;21.40;56.00;;;;;;5267408;23;20475;-89
2021/06/03 01:37:06;;;;;;;6.47;5.87;;;20.90;74.20;;;;;;3496921;23;21521;-91
2021/06/03 01:39:35;;;;;;;6.60;6.10;;;24.00;58.40;;;;;;4978179;28;20933;-91
2021/06/03 01:42:08;;;;;;;6.97;6.57;;;22.30;57.80;;;;;;4980196;29;20461;-92
2021/06/03 01:44:39;;;;;;;6.40;6.10;;;20.10;55.50;;;;;;4964405;29;20422;-92
2021/06/03 01:47:09;;;;;;;5.23;5.10;;;21.90;58.50;;;;;;4980999;28;20518;-92
2021/06/03 01:49:37;;;;;;;7.43;6.47;;;25.90;62.40;;;;;;4979827;29;20417;-92
2021/06/03 01:52:07;;;;;;;7.47;6.77;;;23.80;59.00;;;;;;4980805;28;20434;-91
2021/06/03 01:54:40;;;;;;;6.10;5.80;;;23.40;62.30;;;;;;5589760;23;20471;-91
2021/06/03 01:57:10;;;;;;;6.43;5.30;;;23.60;59.20;;;;;;5022358;28;20440;-92
2021/06/03 01:59:39;;;;;;;6.27;5.87;;;23.50;61.50;;;;;;5039132;28;20399;-92
2021/06/03 02:02:06;;;;;;;7.80;6.70;;;20.70;58.20;;;;;;5020792;28;20462;-91
2021/06/03 02:38:15;;;;;;;6.17;5.50;;;;;;;;;;4659230;23;20458;-91
2021/06/03 02:51:18;;;;;;;5.60;5.20;;;20.90;56.10;;;;;;5546094;23;20463;-90
2021/06/03 02:53:51;;;;;;;5.03;4.80;;;20.90;65.70;;;;;;5448767;23;20442;-91
2021/06/03 03:27:30;;;;;;;4.63;4.53;;;20.70;63.30;;;;;;5394917;23;20757;-92
2021/06/03 03:38:26;;;;;;;4.53;4.33;;;18.20;53.20;;;;;;5875311;23;20467;-88
2021/06/03 03:46:08;;;;;;;5.07;4.50;;;20.90;64.20;;;;;;5851848;23;20469;-91
2021/06/03 04:09:17;;;;;;;4.30;4.10;;;21.00;54.40;;;;;;5492650;23;20427;-93
2021/06/03 04:11:48;;;;;;;4.07;3.87;;;20.90;54.50;;;;;;5354479;23;20475;-91
2021/06/03 04:14:21;;;;;;;4.10;3.70;;;23.20;56.40;;;;;;5017893;28;20424;-92
2021/06/03 04:16:50;;;;;;;3.73;3.53;;;21.00;58.00;;;;;;5017580;28;20412;-91
2021/06/03 04:19:19;;;;;;;3.67;3.53;;;20.80;70.70;;;;;;5017718;28;20412;-90
2021/06/03 04:27:01;;;;;;;4.03;3.90;;;20.90;64.80;;;;;;5995157;23;20682;-93
2021/06/03 05:25:57;;;;;;;;;;;;;;;;;;;;;
2021/06/03 05:28:23;;;;;;;3.87;3.63;;;25.60;55.90;;;;;;5019840;28;20444;-90
2021/06/03 05:30:50;;;;;;;3.80;3.60;;;;;;;;;;5002523;28;20437;-91
2021/06/03 05:35:59;;;;;;;3.73;3.60;;;24.60;54.50;;;;;;6019319;23;20406;-89
2021/06/03 05:38:28;;;;;;;3.47;3.20;;;26.50;52.60;;;;;;5000795;28;20397;-92
2021/06/03 05:40:54;;;;;;;3.60;3.50;;;;;;;;;;5218012;23;20432;-90
2021/06/03 05:43:21;;;;;;;3.30;3.27;;;25.50;48.20;;;;;;4998606;28;20506;-92
2021/06/03 05:45:47;;;;;;;3.67;3.47;;;26.10;48.40;;;;;;4999887;28;20422;-91
2021/06/03 05:50:48;;;;;;;3.93;3.80;;;25.00;60.30;;;;;;5845123;23;20220;-90
2021/06/03 06:49:51;;;;;;;5.33;4.90;;;23.60;54.50;;;;;;5501340;23;20494;-91
2021/06/03 07:06:03;;;;;;;4.67;4.40;;;24.30;54.30;;;;;;5169086;23;20475;-92
2021/06/03 07:11:18;;;;;;;5.63;5.20;;;24.30;53.80;;;;;;5334013;23;20471;-92
2021/06/03 07:13:47;;;;;;;5.17;4.67;;;24.10;55.40;;;;;;5014407;28;20440;-91
2021/06/03 07:18:50;;;;;;;5.17;4.90;;;24.80;64.40;;;;;;5700049;23;20475;-88
2021/06/03 07:51:04;;;;;;;4.93;4.73;;;;;;;;;;5662470;23;21505;-89
2021/06/03 07:53:42;;;;;;;4.70;4.53;;;27.80;56.10;;;;;;5682429;23;21480;-91
2021/06/03 07:59:02;;;;;;;4.27;4.17;;;27.90;48.00;;;;;;5553634;23;20482;-92
2021/06/03 08:01:33;;;;;;;5.40;5.10;;;30.60;51.40;;;;;;4988064;28;20455;-89
2021/06/03 08:51:29;;;;;;;5.43;5.23;;;25.40;54.90;;;;;;5701685;23;20479;-92
2021/06/03 09:09:01;;;;;;;4.93;4.73;;;26.60;59.00;;;;;;5069819;23;20510;-92
2021/06/03 09:19:13;;;;;;;5.30;5.03;;;26.00;52.70;;;;;;5168492;23;20495;-91
2021/06/03 09:21:50;;;;;;;5.20;5.00;;;26.30;53.30;;;;;;4978956;28;20801;-89
2021/06/03 09:24:18;;;;;;;6.03;5.73;;;26.30;52.10;;;;;;4978820;28;20412;-87
2021/06/03 09:26:56;;;;;;;5.40;5.17;;;28.80;54.60;;;;;;4978566;28;20420;-89
2021/06/03 09:29:25;;;;;;;6.77;5.87;;;28.80;55.00;;;;;;4979892;28;20574;-89
2021/06/03 09:31:53;;;;;;;5.30;5.10;;;25.50;54.30;;;;;;4986010;28;20478;-88
2021/06/03 09:39:44;;;;;;;6.47;5.90;;;25.10;55.50;;;;;;5412348;23;20494;-89
2021/06/03 09:56:24;;;;;;;5.70;5.30;;;25.50;54.80;;;;;;5854895;23;20544;-87
2021/06/03 10:07:01;;;;;;;5.73;5.43;;;26.00;54.40;;;;;;5439603;23;20801;-91
2021/06/03 10:17:28;;;;;;;6.20;5.80;;;26.30;53.80;;;;;;5162494;23;20506;-89
2021/06/03 10:20:00;;;;;;;6.20;5.90;;;28.10;54.30;;;;;;5016999;28;20422;-91
2021/06/03 10:22:28;;;;;;;6.23;5.93;;;27.30;54.50;;;;;;5013662;28;20470;-90
2021/06/03 10:25:21;;;;;;;5.80;5.60;;;28.40;54.30;;;;;;5014078;28;20456;-88
2021/06/03 10:27:54;;;;;;;7.83;6.03;;;26.60;53.30;;;;;;5013949;28;20420;-87
2021/06/03 10:30:24;;;;;;;5.93;5.73;;;26.70;53.30;;;;;;5010323;28;20518;-89
2021/06/03 10:32:52;;;;;;;6.32;5.82;;;28.40;53.70;;;;;;4661368;28;10000353;-89
2021/06/03 10:35:34;;;;;;;6.30;6.10;;;26.20;52.40;;;;;;4988088;28;20169;-91
2021/06/03 10:40:38;;;;;;;6.00;5.80;;;27.30;52.00;;;;;;4265178;26;20490;-91
2021/06/03 10:43:04;;;;;;;6.63;6.33;;;29.20;53.10;;;;;;4986954;28;20963;-92
2021/06/03 10:45:35;;;;;;;6.23;5.73;;;29.80;54.10;;;;;;4989449;28;20424;-92
2021/06/03 10:48:02;;;;;;;5.77;5.23;;;27.30;52.10;;;;;;5005385;28;20405;-90
2021/06/03 10:50:42;;;;;;;6.97;6.47;;;27.10;53.60;;;;;;5004214;28;20409;-91
2021/06/03 10:53:14;;;;;;;5.10;4.93;;;28.60;54.40;;;;;;5007077;28;20836;-90
2021/06/03 10:55:45;;;;;;;5.90;5.40;;;27.80;53.00;;;;;;4991876;28;20463;-91
2021/06/03 10:58:29;;;;;;;6.57;6.27;;;29.50;54.40;;;;;;5005088;28;20458;-88
2021/06/03 11:01:08;;;;;;;6.87;6.37;;;29.00;54.20;;;;;;4985715;28;20507;-90
2021/06/03 11:03:40;;;;;;;6.70;6.20;;;26.70;53.00;;;;;;5003530;28;20444;-89
2021/06/03 11:06:09;;;;;;;6.87;6.50;;;27.10;53.60;;;;;;4985477;28;20508;-89
2021/06/03 11:08:40;;;;;;;6.70;6.47;;;26.40;54.50;;;;;;4987072;28;20467;-92
2021/06/03 11:11:27;;;;;;;8.43;7.87;;;27.50;56.80;;;;;;5005529;28;20474;-88
2021/06/03 11:19:11;;;;;;;17.40;9.37;;;25.30;57.90;;;;;;5415939;23;20527;-88
2021/06/03 11:35:08;;;;;;;7.20;6.80;;;25.10;58.80;;;;;;5235533;23;20482;-93
2021/06/03 11:45:59;;;;;;;4.90;4.70;;;25.50;55.50;;;;;;5408153;23;20240;-90
2021/06/03 11:48:43;;;;;;;5.23;4.83;;;26.50;56.20;;;;;;5005081;28;20490;-89
2021/06/03 11:51:11;;;;;;;5.13;4.83;;;28.60;55.10;;;;;;5003837;23;20465;-92
2021/06/03 11:53:50;;;;;;;5.03;4.80;;;27.20;56.70;;;;;;4962129;28;20433;-94
2021/06/03 11:56:27;;;;;;;5.50;5.40;;;29.40;55.10;;;;;;4976731;28;20480;-91
2021/06/03 11:59:02;;;;;;;5.27;5.13;;;29.30;57.30;;;;;;4994577;28;20417;-92
2021/06/03 12:01:37;;;;;;;4.67;4.50;;;26.80;52.50;;;;;;4982425;28;20468;-91
2021/06/03 12:04:19;;;;;;;4.30;4.20;;;32.70;55.30;;;;;;4995772;28;20483;-92
2021/06/03 12:06:48;;;;;;;4.90;4.50;;;27.40;49.10;;;;;;4975755;28;20433;-92
2021/06/03 12:09:31;;;;;;;5.70;5.30;;;29.70;49.40;;;;;;4979064;28;20494;-91
2021/06/03 12:12:04;;;;;;;5.10;4.90;;;30.40;48.00;;;;;;4996358;28;20437;-90
2021/06/03 12:14:45;;;;;;;5.00;4.80;;;30.90;48.40;;;;;;4978731;28;20397;-93
2021/06/03 12:17:14;;;;;;;4.43;4.30;;;30.00;46.80;;;;;;4994087;28;20426;-91
2021/06/03 12:24:59;;;;;;;4.40;4.23;;;32.10;43.70;;;;;;5118766;23;20529;-90
2021/06/03 12:27:35;;;;;;;3.90;3.80;;;34.50;42.70;;;;;;5018373;28;20420;-90
2021/06/03 12:30:09;;;;;;;3.60;3.60;;;34.20;39.20;;;;;;5019751;28;20179;-90
2021/06/03 12:32:38;;;;;;;4.40;4.17;;;34.80;40.50;;;;;;5002709;28;20449;-90
2021/06/03 12:35:06;;;;;;;4.03;3.90;;;35.10;39.00;;;;;;5023773;28;20438;-90
2021/06/03 12:37:34;;;;;;;3.70;3.60;;;35.70;37.80;;;;;;5028811;28;20412;-90
2021/06/03 12:40:07;;;;;;;4.07;3.97;;;36.80;37.80;;;;;;5023671;28;20496;-91
2021/06/03 12:42:33;;;;;;;3.77;3.67;;;36.40;35.80;;;;;;5014638;28;20479;-91
2021/06/03 12:45:03;;;;;;;3.83;3.60;;;38.20;37.30;;;;;;5014759;28;20423;-90
2021/06/03 12:47:31;;;;;;;3.50;3.50;;;37.40;36.90;;;;;;5007539;28;20311;-90
2021/06/03 12:50:10;;;;;;;4.37;4.27;;;36.30;36.90;;;;;;5021057;28;20410;-89
2021/06/03 12:52:36;;;;;;;4.27;4.07;;;35.60;37.20;;;;;;5019841;28;20423;-92
2021/06/03 12:55:04;;;;;;;4.33;4.03;;;37.10;38.50;;;;;;5023860;28;20408;-91
2021/06/03 12:57:29;;;;;;;5.30;5.00;;;35.70;35.80;;;;;;5002518;28;20419;-90
2021/06/03 12:59:57;;;;;;;5.03;4.83;;;35.50;37.20;;;;;;5003034;28;20426;-91
2021/06/03 13:02:32;;;;;;;4.60;4.50;;;35.30;39.10;;;;;;4672141;28;10000042;-89
2021/06/03 13:04:58;;;;;;;4.33;4.23;;;33.40;38.10;;;;;;5000784;28;20180;-92
2021/06/03 13:07:37;;;;;;;5.23;4.50;;;34.60;39.20;;;;;;4999544;28;20427;-90
2021/06/03 13:10:15;;;;;;;4.40;4.20;;;34.00;38.60;;;;;;5017856;28;20419;-90
2021/06/03 13:12:47;;;;;;;4.90;4.70;;;33.90;38.60;;;;;;5006918;28;20418;-91
2021/06/03 13:15:13;;;;;;;4.40;4.23;;;33.50;39.20;;;;;;5034545;28;20507;-91
2021/06/03 13:17:44;;;;;;;4.73;4.50;;;32.60;40.60;;;;;;5012573;28;20753;-91
2021/06/03 13:20:13;;;;;;;4.77;4.60;;;32.00;40.60;;;;;;5020692;28;20419;-90
2021/06/03 13:22:39;;;;;;;4.20;4.20;;;31.50;42.20;;;;;;5002351;28;20479;-90
2021/06/03 13:25:08;;;;;;;5.00;4.90;;;32.00;44.40;;;;;;5017761;28;20455;-91
2021/06/03 13:27:35;;;;;;;4.67;4.47;;;32.00;42.50;;;;;;5016605;28;20168;-91
2021/06/03 13:30:22;;;;;;;3.57;3.47;;;32.30;40.20;;;;;;5016472;28;20533;-92
2021/06/03 13:32:50;;;;;;;4.00;3.90;;;33.00;38.80;;;;;;5016714;28;20422;-90
2021/06/03 13:35:19;;;;;;;4.77;4.40;;;33.80;38.70;;;;;;4998708;28;20738;-91
2021/06/03 13:37:47;;;;;;;4.20;4.10;;;32.80;39.00;;;;;;5011035;28;20515;-90
2021/06/03 13:40:17;;;;;;;4.23;4.13;;;33.20;39.00;;;;;;4994338;28;20413;-91
2021/06/03 13:42:45;;;;;;;5.40;5.20;;;34.30;38.30;;;;;;4977418;28;20476;-90
2021/06/03 13:45:13;;;;;;;3.80;3.70;;;33.40;37.50;;;;;;4997809;28;20504;-94
2021/06/03 13:47:54;;;;;;;11.13;4.23;;;34.10;36.60;;;;;;4999473;28;20435;-92
2021/06/03 13:50:28;;;;;;;3.83;3.70;;;34.60;34.60;;;;;;5017084;28;20431;-91
2021/06/03 13:53:19;;;;;;;3.37;3.17;;;34.30;34.60;;;;;;5000536;28;20423;-92
2021/06/03 13:56:21;;;;;;;3.20;3.10;;;35.20;34.80;;;;;;4981730;28;20487;-92
2021/06/03 13:58:57;;;;;;;3.27;3.17;;;34.30;34.70;;;;;;5014905;28;20434;-91
2021/06/03 14:01:45;;;;;;;3.00;3.00;;;36.10;36.10;;;;;;5032858;28;20551;-91
2021/06/03 14:04:22;;;;;;;4.97;4.67;;;32.90;36.00;;;;;;5009241;28;20428;-87
2021/06/03 14:07:10;;;;;;;4.03;4.00;;;32.40;36.90;;;;;;5010688;28;20463;-90
2021/06/03 14:09:35;;;;;;;3.93;3.80;;;32.10;39.40;;;;;;5008110;28;20428;-92
2021/06/03 14:12:35;;;;;;;4.80;4.70;;;32.20;44.90;;;;;;5007633;28;20442;-89
2021/06/03 14:15:16;;;;;;;4.17;4.07;;;29.60;44.90;;;;;;4989809;28;20166;-91
2021/06/03 14:17:58;;;;;;;5.77;5.40;;;31.60;43.90;;;;;;4986171;28;20428;-91
2021/06/03 14:20:46;;;;;;;5.23;4.93;;;31.70;44.40;;;;;;4996579;28;20507;-89
2021/06/03 14:23:20;;;;;;;7.00;6.40;;;30.30;47.20;;;;;;4979066;28;20508;-90
2021/06/03 14:25:46;;;;;;;6.30;5.90;;;29.30;45.80;;;;;;4992856;28;20436;-93
2021/06/03 14:28:44;;;;;;;6.30;5.90;;;27.40;51.60;;;;;;5013538;28;20425;-93
2021/06/03 14:32:01;;;;;;;7.57;7.07;;;30.40;47.70;;;;;;4984092;28;20519;-93
2021/06/03 14:34:33;;;;;;;5.90;5.60;;;31.10;51.20;;;;;;5006559;28;20504;-87
2021/06/03 14:37:11;;;;;;;6.20;5.90;;;29.10;49.90;;;;;;4997985;28;20904;-90
2021/06/03 14:40:04;;;;;;;6.97;6.27;;;27.10;48.40;;;;;;4978878;28;20496;-89
2021/06/03 14:42:43;;;;;;;6.37;5.90;;;28.00;49.60;;;;;;4996138;28;20472;-87
2021/06/03 14:45:19;;;;;;;6.40;6.10;;;28.00;49.30;;;;;;4998707;28;20440;-89
2021/06/03 14:47:45;;;;;;;7.67;7.27;;;28.10;50.60;;;;;;4984072;28;20420;-89
2021/06/03 14:50:15;;;;;;;6.97;6.40;;;28.10;49.70;;;;;;4982032;28;20443;-88
2021/06/03 14:52:46;;;;;;;5.97;5.77;;;28.10;49.50;;;;;;4655541;28;10000022;-89
2021/06/03 14:55:13;;;;;;;6.20;5.90;;;29.70;50.60;;;;;;4981039;28;20459;-89
2021/06/03 14:57:41;;;;;;;5.77;5.40;;;28.60;50.90;;;;;;4999784;28;20412;-88
2021/06/03 15:00:15;;;;;;;7.20;6.67;;;29.80;51.20;;;;;;4979849;28;20420;-88
2021/06/03 15:02:41;;;;;;;7.47;7.07;;;27.50;51.00;;;;;;4995293;28;20472;-88
2021/06/03 15:05:07;;;;;;;6.73;6.23;;;27.20;51.80;;;;;;4976412;28;20409;-87
2021/06/03 15:07:33;;;;;;;7.07;6.77;;;27.20;52.20;;;;;;4982847;28;20440;-89
2021/06/03 15:10:00;;;;;;;5.63;5.33;;;29.40;53.60;;;;;;4981971;28;20417;-88
2021/06/03 15:12:26;;;;;;;7.20;6.80;;;27.70;52.10;;;;;;5004835;28;20444;-88
2021/06/03 15:14:52;;;;;;;5.70;5.40;;;29.30;54.00;;;;;;5009266;28;20715;-88
2021/06/03 15:17:17;;;;;;;5.80;5.50;;;27.00;52.80;;;;;;4991144;28;20432;-88
2021/06/03 15:19:45;;;;;;;6.30;6.07;;;28.60;54.60;;;;;;4995950;28;20184;-88
2021/06/03 15:22:13;;;;;;;7.87;7.47;;;28.10;53.20;;;;;;4977736;28;20837;-89
2021/06/03 15:24:41;;;;;;;7.80;7.20;;;27.60;52.60;;;;;;4993780;28;20471;-87
2021/06/03 15:27:09;;;;;;;7.03;6.43;;;27.00;53.00;;;;;;4977531;28;20428;-89
2021/06/03 15:29:36;;;;;;;6.07;5.67;;;27.70;52.60;;;;;;4977080;28;20764;-88
2021/06/03 15:32:03;;;;;;;6.10;5.80;;;27.50;51.20;;;;;;4977988;28;20499;-88
2021/06/03 15:34:46;;;;;;;5.10;5.00;;;26.70;51.90;;;;;;4998186;28;20423;-90
2021/06/03 15:37:56;;;;;;;7.13;6.73;;;28.50;50.50;;;;;;4997425;28;20510;-89
2021/06/03 15:40:52;;;;;;;5.23;4.90;;;30.90;50.60;;;;;;5012903;28;20405;-92
2021/06/03 15:43:19;;;;;;;5.77;5.50;;;29.10;49.30;;;;;;4999270;28;20459;-88
2021/06/03 15:45:45;;;;;;;5.43;5.23;;;30.40;51.70;;;;;;4977990;28;20428;-89
2021/06/03 15:48:14;;;;;;;5.40;5.10;;;30.60;52.10;;;;;;4997122;28;20412;-89
2021/06/03 15:50:41;;;;;;;5.17;4.97;;;28.00;50.30;;;;;;4984094;28;20417;-90
2021/06/03 15:53:09;;;;;;;6.90;6.47;;;28.80;50.70;;;;;;4994346;28;20515;-87
2021/06/03 15:55:35;;;;;;;5.67;5.47;;;27.80;50.00;;;;;;4978379;28;20419;-91
2021/06/03 15:58:01;;;;;;;5.60;5.40;;;28.00;51.00;;;;;;4987639;28;20459;-94
2021/06/03 16:00:29;;;;;;;5.40;5.10;;;26.10;51.90;;;;;;4986644;28;20420;-90
2021/06/03 16:02:56;;;;;;;6.70;6.37;;;26.40;49.70;;;;;;4986919;28;20486;-92
2021/06/03 16:05:32;;;;;;;5.60;5.50;;;27.00;51.30;;;;;;4988327;28;20412;-91
2021/06/03 16:08:04;;;;;;;5.73;5.33;;;28.50;50.80;;;;;;4987265;28;20444;-91
2021/06/03 16:10:31;;;;;;;5.73;5.53;;;27.90;51.70;;;;;;5007948;28;20427;-91
2021/06/03 16:12:58;;;;;;;5.80;5.60;;;30.40;53.00;;;;;;4987787;28;20439;-91
2021/06/03 16:15:24;;;;;;;6.40;5.90;;;28.50;51.10;;;;;;4972115;28;20425;-92
2021/06/03 16:17:50;;;;;;;6.03;5.80;;;29.60;53.00;;;;;;4987043;28;20447;-93
2021/06/03 16:20:19;;;;;;;6.93;6.33;;;28.30;51.10;;;;;;4988235;28;20181;-89
2021/06/03 16:22:50;;;;;;;9.10;8.30;;;28.00;51.40;;;;;;5075221;23;20488;-92
2021/06/03 16:25:16;;;;;;;6.10;5.73;;;27.50;51.90;;;;;;4990843;28;20425;-92
2021/06/03 16:27:45;;;;;;;6.53;6.07;;;28.40;54.70;;;;;;4982223;28;20475;-91
2021/06/03 16:30:19;;;;;;;6.43;6.13;;;29.40;53.10;;;;;;4997475;28;20546;-91
2021/06/03 16:33:07;;;;;;;6.80;6.50;;;27.00;52.30;;;;;;4991070;28;20415;-92
2021/06/03 16:35:34;;;;;;;7.50;6.90;;;27.00;51.90;;;;;;5005196;28;20420;-90
2021/06/03 16:38:04;;;;;;;6.20;5.93;;;27.40;52.60;;;;;;5006237;28;20420;-91
2021/06/03 16:40:32;;;;;;;6.77;6.47;;;27.70;53.10;;;;;;5001058;28;20428;-93
2021/06/03 16:42:58;;;;;;;7.77;7.10;;;27.90;53.80;;;;;;5004652;28;20562;-92
2021/06/03 16:45:26;;;;;;;7.43;7.03;;;28.90;54.40;;;;;;5006291;28;20407;-92
2021/06/03 16:47:55;;;;;;;6.37;6.13;;;26.90;52.80;;;;;;4991336;28;20912;-89
2021/06/03 16:50:21;;;;;;;7.40;6.90;;;27.30;54.90;;;;;;4994218;28;20427;-92
2021/06/03 16:52:52;;;;;;;6.37;6.10;;;28.10;54.10;;;;;;4664099;28;9999640;-93
2021/06/03 16:55:19;;;;;;;8.20;7.63;;;25.80;54.60;;;;;;4987557;28;20420;-89
2021/06/03 16:57:46;;;;;;;6.93;6.60;;;28.20;55.80;;;;;;4991890;28;20863;-90
2021/06/03 17:00:16;;;;;;;7.10;6.70;;;30.80;58.40;;;;;;4992846;28;20431;-90
2021/06/03 17:02:46;;;;;;;6.53;6.23;;;26.30;55.10;;;;;;4991253;28;20501;-90
2021/06/03 17:05:17;;;;;;;8.63;8.03;;;26.30;56.80;;;;;;5012538;28;20408;-90
2021/06/03 17:07:46;;;;;;;8.07;7.63;;;26.80;56.70;;;;;;4977877;28;20448;-90
2021/06/03 17:10:18;;;;;;;7.50;7.10;;;26.20;56.50;;;;;;4992001;28;20460;-92
2021/06/03 17:12:45;;;;;;;7.50;7.00;;;26.80;55.50;;;;;;4975158;28;20428;-91
2021/06/03 17:15:18;;;;;;;7.70;7.30;;;27.50;57.50;;;;;;4990517;28;20433;-91
2021/06/03 17:17:47;;;;;;;7.13;6.73;;;26.10;57.20;;;;;;5008679;28;20427;-91
2021/06/03 17:20:17;;;;;;;8.17;7.70;;;27.20;56.70;;;;;;4993974;28;20506;-89
2021/06/03 17:22:43;;;;;;;6.53;6.03;;;26.80;57.00;;;;;;5000873;28;20511;-92
2021/06/03 17:25:10;;;;;;;7.20;6.90;;;28.70;60.10;;;;;;4993221;28;20481;-90
2021/06/03 17:27:41;;;;;;;7.40;7.00;;;28.70;58.70;;;;;;4995001;28;20456;-91
2021/06/03 17:40:48;;;;;;;7.10;6.70;;;26.00;56.90;;;;;;5233633;23;20534;-90
2021/06/03 17:43:17;;;;;;;9.50;8.30;;;25.90;57.10;;;;;;4963416;28;20488;-88
2021/06/03 17:45:43;;;;;;;7.37;6.90;;;26.00;58.20;;;;;;4964788;28;20413;-88
2021/06/03 17:48:09;;;;;;;8.33;7.63;;;25.10;57.20;;;;;;4980534;28;20416;-87
2021/06/03 17:50:35;;;;;;;8.90;8.20;;;26.00;57.50;;;;;;4980606;28;20445;-89
2021/06/03 17:53:05;;;;;;;7.97;7.53;;;26.50;58.00;;;;;;4979408;28;20931;-89
2021/06/03 17:55:34;;;;;;;8.27;7.77;;;26.30;57.80;;;;;;4997864;28;20265;-88
2021/06/03 17:58:01;;;;;;;7.60;7.20;;;26.20;57.70;;;;;;4998197;28;20463;-87
2021/06/03 18:00:29;;;;;;;7.97;7.57;;;26.20;57.50;;;;;;4982129;28;20467;-88
2021/06/03 18:02:57;;;;;;;8.37;7.87;;;26.20;57.90;;;;;;4982365;28;20480;-89
2021/06/03 18:05:23;;;;;;;11.57;7.43;;;26.20;58.00;;;;;;4995577;28;20513;-88
2021/06/03 18:07:48;;;;;;;7.83;7.53;;;28.70;59.20;;;;;;4978205;28;20900;-88
2021/06/03 18:10:15;;;;;;;8.87;8.27;;;27.00;58.10;;;;;;4978869;28;20425;-89
2021/06/03 18:12:41;;;;;;;9.10;8.70;;;27.90;58.60;;;;;;5009199;28;20172;-88
2021/06/03 18:15:10;;;;;;;8.97;8.47;;;26.90;58.40;;;;;;4994519;28;20428;-88
2021/06/03 18:17:37;;;;;;;8.93;8.43;;;25.90;57.70;;;;;;5006323;28;20423;-89
2021/06/03 18:20:10;;;;;;;9.17;8.47;;;25.50;57.80;;;;;;4996408;28;20425;-88
2021/06/03 18:22:36;;;;;;;10.00;9.40;;;25.70;58.00;;;;;;4970006;28;20488;-88
2021/06/03 18:25:05;;;;;;;11.90;11.10;;;24.70;57.90;;;;;;4996813;28;20405;-88
2021/06/03 18:27:31;;;;;;;10.87;10.00;;;25.70;58.80;;;;;;4977947;28;20460;-89
2021/06/03 18:29:57;;;;;;;13.37;12.20;;;25.70;59.20;;;;;;4975762;28;20518;-89
2021/06/03 18:32:22;;;;;;;10.80;10.20;;;28.40;63.50;;;;;;4994896;28;20177;-89
2021/06/03 18:34:51;;;;;;;11.03;10.20;;;24.90;59.20;;;;;;4995186;28;20177;-87
2021/06/03 18:37:16;;;;;;;12.27;11.40;;;24.80;59.30;;;;;;4995351;28;20232;-88
2021/06/03 18:39:42;;;;;;;11.87;11.00;;;26.40;61.20;;;;;;4996702;28;20875;-88
2021/06/03 18:42:09;;;;;;;10.83;9.97;;;26.10;60.60;;;;;;4996526;28;20235;-87
2021/06/03 18:44:35;;;;;;;10.93;10.23;;;25.60;62.60;;;;;;4995641;28;20915;-88
2021/06/03 18:47:01;;;;;;;10.73;10.03;;;28.20;63.70;;;;;;4994370;28;20404;-88
2021/06/03 18:49:26;;;;;;;10.40;9.60;;;27.30;62.40;;;;;;4993209;28;20413;-88
2021/06/03 18:51:54;;;;;;;9.70;8.70;;;26.80;61.80;;;;;;4992927;28;20223;-87
2021/06/03 18:54:20;;;;;;;9.80;9.30;;;26.30;60.20;;;;;;4997163;28;20169;-88
2021/06/03 18:56:48;;;;;;;8.00;7.60;;;27.70;62.60;;;;;;4976104;28;20475;-88
2021/06/03 18:59:13;;;;;;;8.40;7.80;;;26.50;61.60;;;;;;4975828;28;20665;-87
2021/06/03 19:01:39;;;;;;;9.77;9.00;;;28.40;63.40;;;;;;4994558;28;20831;-89
2021/06/03 19:04:07;;;;;;;10.63;9.83;;;27.10;61.50;;;;;;4977790;28;20173;-88
2021/06/03 19:06:33;;;;;;;8.87;8.37;;;26.40;59.50;;;;;;4964493;28;20572;-88
2021/06/03 19:08:58;;;;;;;10.23;9.43;;;27.30;60.50;;;;;;4996668;28;20420;-87
2021/06/03 19:11:24;;;;;;;13.50;12.33;;;27.00;60.70;;;;;;4993751;28;20649;-88
2021/06/03 19:13:52;;;;;;;14.97;13.57;;;25.60;59.60;;;;;;4990041;28;20720;-88
2021/06/03 19:16:18;;;;;;;12.57;11.57;;;24.30;59.10;;;;;;4975978;28;20748;-88
2021/06/03 19:18:45;;;;;;;17.57;16.00;;;27.10;62.00;;;;;;4975509;28;20425;-86
2021/06/03 19:21:11;;;;;;;13.17;11.93;;;27.80;62.80;;;;;;4974806;28;20424;-87
2021/06/03 19:23:37;;;;;;;7.90;7.50;;;25.90;59.50;;;;;;4993658;28;20436;-89
2021/06/03 19:26:07;;;;;;;8.00;7.60;;;27.80;61.60;;;;;;4993535;28;20933;-88
2021/06/03 19:28:33;;;;;;;7.77;7.27;;;26.60;60.30;;;;;;4992618;28;20173;-89
2021/06/03 19:30:59;;;;;;;7.07;6.77;;;26.90;61.30;;;;;;4992697;28;20400;-88
2021/06/03 19:33:27;;;;;;;8.40;8.00;;;26.40;61.40;;;;;;4993020;28;20412;-88
2021/06/03 19:35:54;;;;;;;8.27;7.80;;;24.90;61.10;;;;;;4992630;28;20482;-87
2021/06/03 19:38:20;;;;;;;7.80;7.20;;;23.10;59.30;;;;;;4974841;28;21264;-88
2021/06/03 19:40:48;;;;;;;9.20;8.70;;;26.80;64.80;;;;;;4972019;28;20888;-88
2021/06/03 19:43:14;;;;;;;9.03;8.53;;;26.10;63.40;;;;;;4989766;28;20460;-89
2021/06/03 19:45:40;;;;;;;9.30;8.73;;;25.90;65.00;;;;;;5006600;28;20420;-88
2021/06/03 19:48:07;;;;;;;7.80;7.43;;;25.90;64.00;;;;;;5008300;28;20544;-88
2021/06/03 19:50:36;;;;;;;9.13;8.40;;;26.60;66.20;;;;;;4995211;28;20461;-89
2021/06/03 19:53:02;;;;;;;9.47;8.87;;;24.40;63.70;;;;;;4996292;28;20421;-88
2021/06/03 19:55:29;;;;;;;9.50;8.80;;;26.50;66.70;;;;;;4994739;28;20487;-87
2021/06/03 19:57:56;;;;;;;9.30;8.70;;;25.00;64.60;;;;;;5000367;28;20432;-87
2021/06/03 20:00:26;;;;;;;12.53;11.50;;;24.20;63.90;;;;;;4997548;28;20420;-87
2021/06/03 20:02:52;;;;;;;8.90;8.33;;;24.60;64.40;;;;;;4990721;28;20476;-87
2021/06/03 20:05:18;;;;;;;9.80;9.00;;;24.90;65.40;;;;;;4992399;28;20543;-86
2021/06/03 20:07:45;;;;;;;10.10;9.33;;;26.60;68.30;;;;;;4992044;28;20260;-86
2021/06/03 20:10:12;;;;;;;9.07;8.50;;;24.20;66.10;;;;;;4990926;28;20488;-86
2021/06/03 20:12:39;;;;;;;10.33;9.60;;;23.80;67.90;;;;;;4991597;28;20437;-86
2021/06/03 20:15:08;;;;;;;10.33;9.57;;;24.40;71.10;;;;;;4991705;28;20477;-87
2021/06/03 20:17:34;;;;;;;11.63;10.60;;;23.60;72.10;;;;;;4991987;28;20423;-87
2021/06/03 20:20:00;;;;;;;10.57;9.67;;;22.00;69.60;;;;;;4990938;28;20432;-88
2021/06/03 20:22:26;;;;;;;9.80;9.20;;;25.70;74.80;;;;;;4996441;28;20295;-87
2021/06/03 20:24:51;;;;;;;9.90;9.30;;;21.90;68.10;;;;;;4995863;28;20180;-87
2021/06/03 20:27:17;;;;;;;9.73;9.10;;;23.50;70.70;;;;;;4996247;28;20442;-88
2021/06/03 20:29:42;;;;;;;9.80;9.20;;;22.50;69.20;;;;;;4995566;28;20173;-87
2021/06/03 20:32:09;;;;;;;9.77;9.10;;;23.70;72.30;;;;;;4996386;28;20182;-88
2021/06/03 20:34:34;;;;;;;8.43;7.83;;;23.00;71.20;;;;;;4994529;28;20609;-86
2021/06/03 20:37:00;;;;;;;10.83;10.00;;;24.10;73.70;;;;;;4994223;28;20508;-87
2021/06/03 20:39:26;;;;;;;10.13;9.10;;;25.80;78.00;;;;;;4999078;28;20303;-87
2021/06/03 20:41:54;;;;;;;10.63;9.77;;;23.50;73.90;;;;;;4997353;28;20306;-88
2021/06/03 20:44:20;;;;;;;9.90;9.30;;;21.10;70.20;;;;;;5014862;28;20207;-87
2021/06/03 20:46:48;;;;;;;11.33;10.50;;;23.60;75.70;;;;;;4996838;28;20517;-87
2021/06/03 20:49:14;;;;;;;11.70;10.93;;;25.10;78.10;;;;;;5001091;28;20185;-87
2021/06/03 20:51:44;;;;;;;10.73;10.13;;;24.20;77.30;;;;;;4977806;28;20460;-87
2021/06/03 20:54:12;;;;;;;11.60;10.67;;;24.20;78.10;;;;;;4977910;28;20428;-86
2021/06/03 20:56:38;;;;;;;9.80;9.30;;;21.20;74.70;;;;;;4995533;28;20464;-86
2021/06/03 20:59:05;;;;;;;11.57;10.63;;;22.40;76.80;;;;;;4995599;28;20453;-87
2021/06/03 21:01:31;;;;;;;10.27;9.37;;;22.50;76.90;;;;;;4996992;28;20169;-87
2021/06/03 21:03:58;;;;;;;10.20;9.60;;;22.50;76.60;;;;;;4978953;28;20429;-86
2021/06/03 21:06:24;;;;;;;10.37;9.57;;;22.40;77.50;;;;;;5010492;28;20464;-85
2021/06/03 21:08:51;;;;;;;11.83;11.10;;;23.60;80.10;;;;;;4990428;28;20447;-85
2021/06/03 21:11:17;;;;;;;10.77;9.93;;;22.90;79.60;;;;;;4997548;28;20507;-86
2021/06/03 21:13:43;;;;;;;10.30;9.70;;;21.70;79.10;;;;;;4996159;28;20428;-86
2021/06/03 21:16:09;;;;;;;10.00;9.40;;;23.00;81.60;;;;;;4994886;28;20427;-86
2021/06/03 21:18:35;;;;;;;12.67;11.63;;;23.40;83.40;;;;;;4994699;28;20424;-86
2021/06/03 21:21:01;;;;;;;10.70;10.20;;;24.30;85.80;;;;;;4977559;28;20648;-86
2021/06/03 21:23:27;;;;;;;11.97;10.93;;;20.20;79.90;;;;;;4976354;28;20482;-86
2021/06/03 21:25:52;;;;;;;11.23;10.40;;;22.40;82.50;;;;;;4993784;28;20566;-86
2021/06/03 21:28:18;;;;;;;10.70;9.83;;;21.30;79.30;;;;;;4976228;28;20432;-88
2021/06/03 21:30:44;;;;;;;9.40;8.70;;;21.80;78.50;;;;;;4993806;28;20417;-86
2021/06/03 21:33:12;;;;;;;9.27;8.77;;;22.10;78.40;;;;;;4992798;28;20197;-86
2021/06/03 21:35:40;;;;;;;10.77;10.07;;;22.30;78.50;;;;;;4976553;28;20192;-87
2021/06/03 21:38:06;;;;;;;10.87;9.97;;;22.40;78.40;;;;;;4993744;28;20947;-87
2021/06/03 21:40:34;;;;;;;8.53;8.13;;;22.10;77.40;;;;;;4993210;28;20670;-87
2021/06/03 21:43:00;;;;;;;9.70;9.10;;;22.10;75.20;;;;;;5005285;28;20813;-86
2021/06/03 21:45:25;;;;;;;8.80;8.13;;;22.10;74.20;;;;;;4996247;28;20426;-87